Time;durP1;ratioP1;P1;durP2;ratioP2;P2;SDS_P1;SDS_P2;PMS_P1;PMS_P2;Temp;Humidity;BMP_temperature;BMP_pressure;BME280_temperature;BME280_humidity;BME280_pressure;Samples;Min_cycle;Max_cycle;Signal;HPM_P1;HPM_P2
2023/01/22 00:00:24;;;;;;;10.43;5.95;;;22.20;59.60;;;;;;5015484;28;20214;-80
2023/01/22 00:02:51;;;;;;;8.43;5.63;;;22.20;59.40;;;;;;5018412;28;20211;-78
2023/01/22 00:05:17;;;;;;;9.23;6.00;;;22.30;59.50;;;;;;5016707;28;20470;-78
2023/01/22 00:07:44;;;;;;;8.52;5.35;;;22.30;59.50;;;;;;5016482;28;20458;-79
2023/01/22 00:10:12;;;;;;;7.63;5.40;;;22.30;59.50;;;;;;5014777;28;20197;-79
2023/01/22 00:12:39;;;;;;;10.70;5.53;;;22.20;59.60;;;;;;5016566;28;20205;-77
2023/01/22 00:15:07;;;;;;;13.90;6.53;;;22.20;59.70;;;;;;5014153;28;20209;-76
2023/01/22 00:17:34;;;;;;;7.22;5.13;;;22.20;59.60;;;;;;5016756;28;20239;-80
2023/01/22 00:20:01;;;;;;;9.15;6.38;;;22.20;59.60;;;;;;5016598;28;20618;-78
2023/01/22 00:22:29;;;;;;;9.02;5.47;;;22.30;59.70;;;;;;5015993;28;20207;-79
2023/01/22 00:24:56;;;;;;;9.60;6.18;;;22.20;59.60;;;;;;5015621;28;20208;-80
2023/01/22 00:27:24;;;;;;;8.80;5.90;;;22.20;59.60;;;;;;5016661;28;20202;-80
2023/01/22 00:29:51;;;;;;;10.07;6.15;;;22.20;59.60;;;;;;5017240;28;20234;-80
2023/01/22 00:32:18;;;;;;;9.85;5.53;;;22.20;59.40;;;;;;5015488;28;20227;-80
2023/01/22 00:34:50;;;;;;;11.05;5.72;;;22.20;59.40;;;;;;5014563;28;20213;-80
2023/01/22 00:37:19;;;;;;;10.90;6.18;;;22.20;59.40;;;;;;5018198;28;20580;-80
2023/01/22 00:39:45;;;;;;;10.82;5.70;;;22.20;59.40;;;;;;5017382;28;20328;-80
2023/01/22 00:42:12;;;;;;;8.75;6.03;;;22.20;59.40;;;;;;5012425;28;20294;-77
2023/01/22 00:44:40;;;;;;;10.45;5.97;;;22.20;59.50;;;;;;5018083;28;20206;-79
2023/01/22 00:47:07;;;;;;;7.47;5.13;;;22.20;59.40;;;;;;5015750;28;20642;-80
2023/01/22 00:49:34;;;;;;;10.02;4.97;;;22.20;59.40;;;;;;5017820;28;20209;-79
2023/01/22 00:52:00;;;;;;;9.00;5.68;;;22.20;59.30;;;;;;5013651;28;20203;-78
2023/01/22 00:54:28;;;;;;;7.53;5.40;;;22.20;59.30;;;;;;5013568;28;20317;-78
2023/01/22 00:56:56;;;;;;;8.73;5.47;;;22.30;59.30;;;;;;5015135;28;20778;-77
2023/01/22 00:59:23;;;;;;;8.90;5.07;;;22.20;59.20;;;;;;5015797;28;20223;-77
2023/01/22 01:01:51;;;;;;;10.75;5.65;;;22.20;59.20;;;;;;5012266;28;20462;-76
2023/01/22 01:04:18;;;;;;;11.35;5.65;;;22.30;59.30;;;;;;5015417;28;20202;-77
2023/01/22 01:06:45;;;;;;;9.23;5.53;;;22.30;59.30;;;;;;5017856;28;20214;-78
2023/01/22 01:09:11;;;;;;;12.33;5.93;;;22.20;59.20;;;;;;5016645;28;20572;-78
2023/01/22 01:11:38;;;;;;;10.05;5.25;;;22.20;59.20;;;;;;5015365;28;20453;-79
2023/01/22 01:14:05;;;;;;;11.60;5.85;;;22.30;59.20;;;;;;5014100;28;20212;-81
2023/01/22 01:16:32;;;;;;;7.13;4.83;;;22.20;59.20;;;;;;5014851;28;20258;-80
2023/01/22 01:19:02;;;;;;;8.70;5.05;;;22.30;59.20;;;;;;5015417;28;20486;-79
2023/01/22 01:21:30;;;;;;;6.93;5.57;;;22.20;59.10;;;;;;5013279;28;20295;-79
2023/01/22 01:23:58;;;;;;;7.47;4.85;;;22.20;59.20;;;;;;5014742;28;20521;-80
2023/01/22 01:26:26;;;;;;;7.45;5.38;;;22.30;59.20;;;;;;5015143;28;20587;-80
2023/01/22 01:28:53;;;;;;;6.65;4.93;;;22.30;59.20;;;;;;5014323;28;20242;-77
2023/01/22 01:31:21;;;;;;;6.73;5.07;;;22.20;59.10;;;;;;5014928;28;20262;-78
2023/01/22 01:33:49;;;;;;;7.72;5.20;;;22.20;59.10;;;;;;5016216;28;20454;-80
2023/01/22 01:36:20;;;;;;;8.90;5.40;;;22.20;59.10;;;;;;5014205;28;20204;-79
2023/01/22 01:38:47;;;;;;;9.05;5.18;;;22.20;59.10;;;;;;5009511;28;20202;-78
2023/01/22 01:41:16;;;;;;;7.13;4.77;;;22.20;59.10;;;;;;5014486;28;20197;-79
2023/01/22 01:43:43;;;;;;;5.10;4.43;;;22.20;59.00;;;;;;5011822;28;20466;-80
2023/01/22 01:46:16;;;;;;;8.68;5.60;;;22.30;59.20;;;;;;5011233;28;20206;-78
2023/01/22 01:48:46;;;;;;;9.95;5.10;;;22.20;59.00;;;;;;5011834;28;20211;-79
2023/01/22 01:51:17;;;;;;;5.33;4.20;;;22.20;59.10;;;;;;5011223;28;20204;-78
2023/01/22 01:53:47;;;;;;;9.47;5.90;;;22.20;59.10;;;;;;5011320;28;20457;-79
2023/01/22 01:56:17;;;;;;;7.40;4.70;;;22.20;59.00;;;;;;5012136;28;20544;-78
2023/01/22 01:58:46;;;;;;;10.05;5.60;;;22.20;59.00;;;;;;5012654;28;20215;-77
2023/01/22 02:01:15;;;;;;;6.40;4.80;;;22.30;59.10;;;;;;5010665;28;20844;-78
2023/01/22 02:03:42;;;;;;;6.63;4.83;;;22.20;59.00;;;;;;5013153;28;20214;-79
2023/01/22 02:06:11;;;;;;;7.43;5.50;;;22.20;59.00;;;;;;5008300;28;20490;-77
2023/01/22 02:08:38;;;;;;;10.05;5.30;;;22.20;59.00;;;;;;5015689;28;20959;-80
2023/01/22 02:11:07;;;;;;;6.75;4.65;;;22.20;59.00;;;;;;5015167;28;20219;-78
2023/01/22 02:13:36;;;;;;;8.85;5.90;;;22.20;59.00;;;;;;5013340;28;20654;-78
2023/01/22 02:16:03;;;;;;;8.68;5.82;;;22.20;59.00;;;;;;5013349;28;20203;-78
2023/01/22 02:18:30;;;;;;;6.18;4.45;;;22.20;59.00;;;;;;5015566;28;20257;-79
2023/01/22 02:21:00;;;;;;;7.35;3.90;;;22.20;59.10;;;;;;5014568;28;20226;-79
2023/01/22 02:23:28;;;;;;;5.70;4.63;;;22.20;59.00;;;;;;5012737;28;20685;-77
2023/01/22 02:25:55;;;;;;;5.32;4.65;;;22.30;59.10;;;;;;5016566;28;20207;-79
2023/01/22 02:28:22;;;;;;;6.22;4.45;;;22.30;59.10;;;;;;5014914;28;20265;-79
2023/01/22 02:30:49;;;;;;;5.88;3.95;;;22.30;59.10;;;;;;5014418;28;20202;-78
2023/01/22 02:33:16;;;;;;;7.40;4.20;;;22.30;59.00;;;;;;5014905;28;20204;-78
2023/01/22 02:35:43;;;;;;;6.22;3.90;;;22.30;59.00;;;;;;5012738;28;20223;-80
2023/01/22 02:38:12;;;;;;;7.67;4.50;;;22.30;59.00;;;;;;5013984;28;20206;-77
2023/01/22 02:40:47;;;;;;;9.00;4.65;;;22.30;59.10;;;;;;5015575;28;20777;-79
2023/01/22 02:43:15;;;;;;;6.50;4.78;;;22.30;59.10;;;;;;5016384;28;20721;-79
2023/01/22 02:45:41;;;;;;;5.95;4.82;;;22.30;59.10;;;;;;5014502;28;20751;-78
2023/01/22 02:48:08;;;;;;;7.03;4.50;;;22.30;59.10;;;;;;5017784;28;20206;-77
2023/01/22 02:50:35;;;;;;;5.05;3.53;;;22.30;59.60;;;;;;5016498;28;20196;-78
2023/01/22 02:53:01;;;;;;;5.20;4.07;;;22.30;59.00;;;;;;5011777;28;20725;-77
2023/01/22 02:55:30;;;;;;;8.15;5.00;;;22.30;59.00;;;;;;5015288;28;20481;-78
2023/01/22 02:57:56;;;;;;;5.85;3.60;;;22.30;59.10;;;;;;5016314;28;20209;-77
2023/01/22 03:00:23;;;;;;;5.43;4.63;;;22.30;59.10;;;;;;5013467;28;20238;-80
2023/01/22 03:02:50;;;;;;;5.05;3.63;;;22.30;59.10;;;;;;5016699;28;20459;-79
2023/01/22 03:05:17;;;;;;;5.70;3.78;;;22.30;59.00;;;;;;5018046;28;20211;-79
2023/01/22 03:07:43;;;;;;;5.07;4.18;;;22.30;59.00;;;;;;5011996;28;20211;-79
2023/01/22 03:10:13;;;;;;;7.68;4.03;;;22.30;59.00;;;;;;5018729;28;20283;-79
2023/01/22 03:23:39;;;;;;;5.10;3.63;;;22.30;59.00;;;;;;5016703;28;20204;-78
2023/01/22 03:26:06;;;;;;;3.97;3.20;;;22.30;59.00;;;;;;5016718;28;20462;-79
2023/01/22 03:28:35;;;;;;;4.93;3.60;;;22.30;59.00;;;;;;5018903;28;20203;-78
2023/01/22 03:31:02;;;;;;;6.40;3.88;;;22.40;59.10;;;;;;5016857;28;20215;-79
2023/01/22 03:33:29;;;;;;;5.33;3.30;;;22.30;59.00;;;;;;5017431;28;20342;-79
2023/01/22 03:36:00;;;;;;;4.22;3.50;;;22.30;59.00;;;;;;5018903;28;20496;-80
2023/01/22 03:38:27;;;;;;;5.82;3.13;;;22.30;59.00;;;;;;5015968;28;20235;-77
2023/01/22 03:41:01;;;;;;;6.28;3.50;;;22.30;59.00;;;;;;5014520;28;20208;-80
2023/01/22 03:43:28;;;;;;;4.60;3.67;;;22.30;59.00;;;;;;5015732;28;20688;-78
2023/01/22 03:46:04;;;;;;;6.72;4.00;;;22.30;59.00;;;;;;5015985;28;20204;-75
2023/01/22 03:48:31;;;;;;;6.63;4.28;;;22.30;59.00;;;;;;5014011;28;20689;-77
2023/01/22 03:51:04;;;;;;;4.13;3.10;;;22.30;59.00;;;;;;5013441;28;20200;-73
2023/01/22 03:53:31;;;;;;;4.63;3.20;;;22.30;58.90;;;;;;5010940;28;20219;-76
2023/01/22 03:55:58;;;;;;;4.45;3.17;;;22.40;59.10;;;;;;5014546;28;20470;-74
2023/01/22 03:58:25;;;;;;;5.35;4.05;;;22.30;59.00;;;;;;5015653;28;20227;-75
2023/01/22 04:00:56;;;;;;;4.70;3.28;;;22.30;59.00;;;;;;5013217;28;20689;-75
2023/01/22 04:03:25;;;;;;;4.13;3.72;;;22.30;59.00;;;;;;5016306;28;21698;-73
2023/01/22 04:05:53;;;;;;;3.75;2.95;;;22.30;59.00;;;;;;5013399;28;20658;-74
2023/01/22 04:08:20;;;;;;;5.25;3.35;;;22.30;58.90;;;;;;5011804;28;20542;-74
2023/01/22 04:10:47;;;;;;;5.80;3.85;;;22.30;59.00;;;;;;5015908;28;20293;-75
2023/01/22 04:13:14;;;;;;;4.63;3.80;;;22.30;59.00;;;;;;5014871;28;20199;-74
2023/01/22 04:15:43;;;;;;;4.07;3.67;;;22.30;59.00;;;;;;5014953;28;20465;-73
2023/01/22 04:18:10;;;;;;;4.28;3.05;;;22.30;59.00;;;;;;5015773;28;20261;-76
2023/01/22 04:20:38;;;;;;;3.13;2.75;;;22.30;59.00;;;;;;5017219;28;20223;-75
2023/01/22 04:23:05;;;;;;;4.22;3.08;;;22.30;58.90;;;;;;5014856;28;20613;-75
2023/01/22 04:25:32;;;;;;;4.10;3.40;;;22.30;59.00;;;;;;5016325;28;20203;-74
2023/01/22 04:27:59;;;;;;;3.45;2.88;;;22.30;59.00;;;;;;5017008;28;20686;-74
2023/01/22 04:30:26;;;;;;;5.17;3.20;;;22.30;59.00;;;;;;5013770;28;22095;-80
2023/01/22 04:32:52;;;;;;;4.40;2.60;;;22.30;58.90;;;;;;5014981;28;20502;-78
2023/01/22 04:35:19;;;;;;;3.90;3.10;;;22.30;58.90;;;;;;5016259;28;20655;-78
2023/01/22 04:37:47;;;;;;;4.35;2.70;;;22.30;58.90;;;;;;5015017;28;20469;-78
2023/01/22 04:40:14;;;;;;;5.57;3.03;;;22.30;59.00;;;;;;5014573;28;20614;-78
2023/01/22 04:42:41;;;;;;;3.58;2.58;;;22.30;59.00;;;;;;5015191;28;20211;-79
2023/01/22 04:45:09;;;;;;;3.05;2.75;;;22.30;58.90;;;;;;5014099;28;20207;-76
2023/01/22 04:47:40;;;;;;;4.63;2.95;;;22.30;58.90;;;;;;5014751;28;20204;-78
2023/01/22 04:50:08;;;;;;;3.97;2.92;;;22.30;58.90;;;;;;5013570;28;20206;-79
2023/01/22 04:52:35;;;;;;;4.68;3.38;;;22.30;58.90;;;;;;5013523;28;20204;-76
2023/01/22 04:55:04;;;;;;;4.77;3.00;;;22.30;58.90;;;;;;5014715;28;20203;-79
2023/01/22 04:57:30;;;;;;;3.95;2.72;;;22.30;58.90;;;;;;5014142;28;20978;-79
2023/01/22 04:59:57;;;;;;;4.45;2.92;;;22.30;58.90;;;;;;5013929;28;20202;-78
2023/01/22 05:02:24;;;;;;;5.23;3.20;;;22.30;58.80;;;;;;5013852;28;20214;-79
2023/01/22 05:04:51;;;;;;;3.67;3.35;;;22.30;58.80;;;;;;5010789;28;20462;-77
2023/01/22 05:07:18;;;;;;;3.47;2.75;;;22.30;58.80;;;;;;5013632;28;20206;-78
2023/01/22 05:09:44;;;;;;;4.43;2.47;;;22.30;58.90;;;;;;5011832;28;20199;-79
2023/01/22 05:12:13;;;;;;;5.07;3.10;;;22.30;58.90;;;;;;5013873;28;20531;-79
2023/01/22 05:14:39;;;;;;;5.90;3.78;;;22.30;58.80;;;;;;5014576;28;20204;-77
2023/01/22 05:17:06;;;;;;;3.55;3.22;;;22.30;58.80;;;;;;5015098;28;20289;-77
2023/01/22 05:19:34;;;;;;;4.78;3.05;;;22.30;58.80;;;;;;5014056;28;20199;-74
2023/01/22 05:22:01;;;;;;;3.38;2.67;;;22.30;58.80;;;;;;5015570;28;20279;-74
2023/01/22 05:24:28;;;;;;;4.47;3.60;;;22.30;58.80;;;;;;5013735;28;20215;-76
2023/01/22 05:26:54;;;;;;;4.28;2.55;;;22.30;58.80;;;;;;5016256;28;20294;-73
2023/01/22 05:29:24;;;;;;;3.00;2.70;;;22.30;58.80;;;;;;5012398;28;20219;-75
2023/01/22 05:31:51;;;;;;;2.88;2.05;;;22.30;58.80;;;;;;5012254;28;20219;-74
2023/01/22 05:34:18;;;;;;;3.25;2.47;;;22.30;58.80;;;;;;5012238;28;20280;-75
2023/01/22 05:36:45;;;;;;;2.85;2.65;;;22.30;58.80;;;;;;5013791;28;20196;-74
2023/01/22 05:39:12;;;;;;;2.97;2.42;;;22.30;58.70;;;;;;5012253;28;20674;-73
2023/01/22 05:41:38;;;;;;;4.45;3.25;;;22.30;58.80;;;;;;5011550;28;20231;-75
2023/01/22 05:44:06;;;;;;;3.20;2.50;;;22.30;58.80;;;;;;5014032;28;20214;-75
2023/01/22 05:46:34;;;;;;;3.00;2.70;;;22.30;58.80;;;;;;5015405;28;20305;-76
2023/01/22 05:49:00;;;;;;;3.77;3.10;;;22.30;58.70;;;;;;5014468;28;20237;-76
2023/01/22 05:51:27;;;;;;;3.03;2.60;;;22.30;58.70;;;;;;5012199;28;20458;-73
2023/01/22 05:53:54;;;;;;;3.05;2.65;;;22.30;58.80;;;;;;5012418;28;20455;-73
2023/01/22 05:56:21;;;;;;;3.08;2.38;;;22.30;58.60;;;;;;5011693;28;20205;-75
2023/01/22 05:58:48;;;;;;;3.78;2.67;;;22.30;58.70;;;;;;5014323;28;20223;-74
2023/01/22 06:01:14;;;;;;;3.85;2.35;;;22.30;58.70;;;;;;5013595;28;20218;-74
2023/01/22 06:03:43;;;;;;;4.20;3.00;;;22.30;58.70;;;;;;5010210;28;20203;-77
2023/01/22 06:06:12;;;;;;;3.40;2.35;;;22.30;58.70;;;;;;5011821;28;20227;-74
2023/01/22 06:08:39;;;;;;;3.03;2.53;;;22.20;58.70;;;;;;5013732;28;20203;-75
2023/01/22 06:11:07;;;;;;;3.17;2.27;;;22.20;58.90;;;;;;5015063;28;20473;-74
2023/01/22 06:13:35;;;;;;;3.13;2.43;;;22.20;59.00;;;;;;5015092;28;20466;-74
2023/01/22 06:16:02;;;;;;;3.70;2.55;;;22.00;59.00;;;;;;5018282;28;20980;-74
2023/01/22 06:18:28;;;;;;;2.67;2.20;;;22.00;59.10;;;;;;5018695;28;20203;-73
2023/01/22 06:20:59;;;;;;;3.78;2.55;;;21.90;59.20;;;;;;5018144;28;20215;-75
2023/01/22 06:23:28;;;;;;;3.13;2.38;;;21.80;59.10;;;;;;5018000;28;20199;-74
2023/01/22 06:25:56;;;;;;;2.50;2.03;;;21.70;59.20;;;;;;5017453;28;20643;-75
2023/01/22 06:28:23;;;;;;;2.90;1.90;;;21.70;59.40;;;;;;5018346;28;20540;-75
2023/01/22 06:30:51;;;;;;;3.78;2.35;;;21.70;59.40;;;;;;5018285;28;20723;-73
2023/01/22 06:33:18;;;;;;;3.13;2.83;;;21.90;59.30;;;;;;5017330;28;20679;-73
2023/01/22 06:35:44;;;;;;;2.60;2.38;;;22.00;59.10;;;;;;5018475;28;20781;-74
2023/01/22 06:38:12;;;;;;;3.63;2.88;;;22.10;58.80;;;;;;5015056;28;20204;-74
2023/01/22 06:40:39;;;;;;;2.97;2.25;;;22.20;58.60;;;;;;5015629;28;20666;-72
2023/01/22 06:43:07;;;;;;;2.03;1.83;;;22.40;58.40;;;;;;5015803;28;20199;-72
2023/01/22 06:45:34;;;;;;;2.35;2.15;;;22.40;58.30;;;;;;5015136;28;20262;-72
2023/01/22 06:48:01;;;;;;;3.20;2.22;;;22.50;58.30;;;;;;5017523;28;20203;-73
2023/01/22 06:50:28;;;;;;;3.08;2.35;;;22.50;58.30;;;;;;5016883;28;20203;-75
2023/01/22 06:52:54;;;;;;;2.53;2.20;;;22.50;58.20;;;;;;5020011;28;20570;-75
2023/01/22 06:55:22;;;;;;;2.97;2.50;;;22.60;58.20;;;;;;5016981;28;20208;-73
2023/01/22 06:57:49;;;;;;;3.13;1.88;;;22.60;58.20;;;;;;5018678;28;20290;-75
2023/01/22 07:00:17;;;;;;;2.65;2.10;;;22.60;58.20;;;;;;5013716;28;20512;-74
2023/01/22 07:02:44;;;;;;;4.63;2.00;;;22.60;58.20;;;;;;5015558;28;20232;-75
2023/01/22 07:05:10;;;;;;;2.00;1.80;;;22.60;58.40;;;;;;5017268;28;20211;-75
2023/01/22 07:07:37;;;;;;;2.43;2.20;;;22.60;58.20;;;;;;5016427;28;20198;-76
2023/01/22 07:10:04;;;;;;;2.30;1.80;;;22.50;58.20;;;;;;5015224;28;20477;-74
2023/01/22 07:12:33;;;;;;;3.00;2.10;;;22.50;58.40;;;;;;5016968;28;20626;-75
2023/01/22 07:14:59;;;;;;;2.28;1.98;;;22.50;58.40;;;;;;5016446;28;20484;-74
2023/01/22 07:17:26;;;;;;;2.08;1.60;;;22.40;58.50;;;;;;5016369;28;20236;-75
2023/01/22 07:19:53;;;;;;;3.97;2.73;;;22.40;58.50;;;;;;5015561;28;20657;-75
2023/01/22 07:22:20;;;;;;;2.78;2.30;;;22.40;58.60;;;;;;5014583;28;20506;-74
2023/01/22 07:24:46;;;;;;;2.92;2.50;;;22.40;58.70;;;;;;5016264;28;20223;-74
2023/01/22 07:27:13;;;;;;;3.42;2.20;;;22.30;58.70;;;;;;5015193;28;20199;-76
2023/01/22 07:29:41;;;;;;;2.20;1.60;;;22.30;58.70;;;;;;5018193;28;20667;-73
2023/01/22 07:32:08;;;;;;;2.50;1.63;;;22.30;58.80;;;;;;5015699;28;20451;-75
2023/01/22 07:34:36;;;;;;;3.05;1.90;;;22.30;58.80;;;;;;5016731;28;20486;-74
2023/01/22 07:37:02;;;;;;;2.30;2.08;;;22.30;58.80;;;;;;5013712;28;20192;-74
2023/01/22 07:39:29;;;;;;;3.20;1.70;;;22.30;58.80;;;;;;5010904;28;20199;-77
2023/01/22 07:41:59;;;;;;;2.72;2.20;;;22.30;58.90;;;;;;5016411;28;20236;-74
2023/01/22 07:44:26;;;;;;;3.97;2.80;;;22.20;59.40;;;;;;5016851;28;20207;-73
2023/01/22 07:46:54;;;;;;;2.90;2.25;;;22.20;58.80;;;;;;5014527;28;20704;-73
2023/01/22 07:49:21;;;;;;;2.15;1.60;;;22.20;58.80;;;;;;5013959;28;20209;-74
2023/01/22 07:51:49;;;;;;;2.45;1.92;;;22.20;58.80;;;;;;5014685;28;20692;-74
2023/01/22 07:54:17;;;;;;;3.00;2.00;;;22.20;58.80;;;;;;5012892;28;20215;-74
2023/01/22 07:56:44;;;;;;;2.97;2.10;;;22.20;58.90;;;;;;5014952;28;20207;-75
2023/01/22 07:59:10;;;;;;;3.45;2.00;;;22.20;58.80;;;;;;5013562;28;20211;-74
2023/01/22 08:01:37;;;;;;;2.67;2.00;;;22.20;58.80;;;;;;5015462;28;20223;-74
2023/01/22 08:04:06;;;;;;;2.17;1.45;;;22.20;58.80;;;;;;5012760;28;20471;-75
2023/01/22 08:06:33;;;;;;;3.33;2.95;;;22.20;58.80;;;;;;5013916;28;20879;-76
2023/01/22 08:09:00;;;;;;;2.35;1.63;;;22.20;58.80;;;;;;5013588;28;20207;-74
2023/01/22 08:11:29;;;;;;;1.92;1.73;;;22.20;58.80;;;;;;5015211;28;20195;-74
2023/01/22 08:13:56;;;;;;;3.95;1.90;;;22.20;58.80;;;;;;5014492;28;20203;-75
2023/01/22 08:16:23;;;;;;;2.25;2.00;;;22.20;58.80;;;;;;5014199;28;20672;-75
2023/01/22 08:18:50;;;;;;;2.15;1.77;;;22.30;58.80;;;;;;5017114;28;20968;-76
2023/01/22 08:21:18;;;;;;;3.67;1.90;;;22.30;58.80;;;;;;5017394;28;20218;-76
2023/01/22 08:23:44;;;;;;;12.00;2.20;;;22.20;58.70;;;;;;5015738;28;20222;-76
2023/01/22 08:26:11;;;;;;;3.65;2.10;;;22.20;59.00;;;;;;5012366;28;20215;-80
2023/01/22 08:28:38;;;;;;;2.17;1.98;;;22.20;59.00;;;;;;5016099;28;20204;-80
2023/01/22 08:31:06;;;;;;;2.55;1.75;;;22.20;59.20;;;;;;5016464;28;20571;-83
2023/01/22 08:33:33;;;;;;;3.97;2.35;;;22.40;59.00;;;;;;5017024;28;20207;-83
2023/01/22 08:36:00;;;;;;;4.32;1.92;;;22.60;58.80;;;;;;5016168;28;20207;-82
2023/01/22 08:38:28;;;;;;;3.38;1.85;;;22.70;58.80;;;;;;5015859;28;20565;-81
2023/01/22 08:40:55;;;;;;;4.25;2.03;;;22.90;58.70;;;;;;5011234;28;20198;-80
2023/01/22 08:43:22;;;;;;;1.80;1.70;;;22.80;58.70;;;;;;5008949;28;20210;-84
2023/01/22 08:45:49;;;;;;;6.72;2.20;;;23.00;58.80;;;;;;5010140;28;20644;-84
2023/01/22 08:48:16;;;;;;;2.63;1.70;;;23.30;58.30;;;;;;5012399;28;20581;-82
2023/01/22 08:50:43;;;;;;;2.65;2.10;;;23.50;58.00;;;;;;5012593;28;20203;-81
2023/01/22 08:53:09;;;;;;;2.72;1.92;;;23.70;57.80;;;;;;5014855;28;20203;-82
2023/01/22 08:55:38;;;;;;;3.30;1.70;;;23.80;57.70;;;;;;5009510;28;20202;-79
2023/01/22 08:58:04;;;;;;;1.73;1.45;;;23.80;57.50;;;;;;5012107;28;20211;-78
2023/01/22 09:00:31;;;;;;;2.05;1.75;;;23.80;57.60;;;;;;5012120;28;20203;-80
2023/01/22 09:03:02;;;;;;;3.95;1.77;;;23.70;57.90;;;;;;5010116;28;20241;-79
2023/01/22 09:05:29;;;;;;;2.08;1.42;;;23.50;58.10;;;;;;5012045;28;20196;-78
2023/01/22 09:07:56;;;;;;;3.38;1.70;;;23.50;58.20;;;;;;5008842;28;20638;-80
2023/01/22 09:10:23;;;;;;;3.40;1.77;;;23.40;58.30;;;;;;5013155;28;20659;-79
2023/01/22 09:12:51;;;;;;;2.00;1.80;;;23.40;58.40;;;;;;5011099;28;20206;-84
2023/01/22 09:15:18;;;;;;;1.70;1.60;;;23.30;58.60;;;;;;5009836;28;20207;-81
2023/01/22 09:17:45;;;;;;;1.90;1.50;;;23.30;58.60;;;;;;5009169;28;20482;-79
2023/01/22 09:20:12;;;;;;;1.50;1.40;;;23.20;58.60;;;;;;5012812;28;20458;-82
2023/01/22 09:22:39;;;;;;;1.90;1.40;;;23.20;58.70;;;;;;5013212;28;20560;-79
2023/01/22 09:25:07;;;;;;;2.05;1.63;;;23.20;58.80;;;;;;5016279;28;20206;-79
2023/01/22 09:27:33;;;;;;;2.42;1.50;;;23.10;58.70;;;;;;5016834;28;20294;-80
2023/01/22 09:30:02;;;;;;;2.47;1.77;;;23.00;58.70;;;;;;5012912;28;20211;-78
2023/01/22 09:32:29;;;;;;;2.60;2.33;;;23.00;57.30;;;;;;5014012;28;20487;-81
2023/01/22 09:34:55;;;;;;;2.45;1.80;;;22.80;57.50;;;;;;5015732;28;20960;-80
2023/01/22 09:37:24;;;;;;;2.10;1.63;;;22.70;57.90;;;;;;5014850;28;20221;-78
2023/01/22 09:39:51;;;;;;;2.63;1.52;;;22.60;58.20;;;;;;5014796;28;20267;-79
2023/01/22 09:42:21;;;;;;;1.90;1.40;;;22.50;58.40;;;;;;5013621;28;20220;-79
2023/01/22 09:44:51;;;;;;;1.75;1.63;;;22.50;58.60;;;;;;5013988;28;20204;-80
2023/01/22 09:47:29;;;;;;;2.50;1.80;;;22.40;58.60;;;;;;5013398;28;20578;-79
2023/01/22 09:49:59;;;;;;;1.70;1.30;;;22.40;58.80;;;;;;5015428;28;20840;-78
2023/01/22 09:52:29;;;;;;;5.00;2.22;;;22.30;58.90;;;;;;5014925;28;20781;-83
2023/01/22 09:54:56;;;;;;;1.90;1.50;;;22.30;59.00;;;;;;5014987;28;20239;-75
2023/01/22 09:57:23;;;;;;;2.45;1.75;;;22.00;59.60;;;;;;5014252;28;20210;-74
2023/01/22 09:59:54;;;;;;;2.45;1.77;;;21.90;60.10;;;;;;5012090;28;20208;-75
2023/01/22 10:02:27;;;;;;;3.50;1.30;;;22.00;60.10;;;;;;5013442;28;20250;-74
2023/01/22 10:05:00;;;;;;;1.85;1.75;;;22.10;60.00;;;;;;5018527;28;20193;-74
2023/01/22 10:07:33;;;;;;;3.97;1.40;;;22.20;59.90;;;;;;5018629;28;20201;-74
2023/01/22 10:10:11;;;;;;;4.90;1.50;;;22.20;59.70;;;;;;5017114;28;20211;-74
2023/01/22 10:12:38;;;;;;;3.10;1.67;;;22.20;59.60;;;;;;5016894;28;20205;-76
2023/01/22 10:15:07;;;;;;;3.00;1.77;;;22.20;59.50;;;;;;5016684;28;20204;-73
2023/01/22 10:17:36;;;;;;;3.20;1.60;;;22.30;59.40;;;;;;5017423;28;21011;-74
2023/01/22 10:20:07;;;;;;;2.22;1.40;;;22.30;59.30;;;;;;5018769;28;20219;-75
2023/01/22 10:22:33;;;;;;;3.67;1.70;;;22.30;59.20;;;;;;5019138;28;20223;-73
2023/01/22 10:25:00;;;;;;;1.80;1.38;;;22.30;59.20;;;;;;5019225;28;20211;-76
2023/01/22 10:27:35;;;;;;;3.25;1.85;;;22.30;59.20;;;;;;5017682;28;20203;-73
2023/01/22 10:30:08;;;;;;;1.80;1.52;;;22.30;59.20;;;;;;5016973;28;20204;-75
2023/01/22 10:32:36;;;;;;;2.85;1.77;;;22.30;59.20;;;;;;5018399;28;20230;-75
2023/01/22 10:35:06;;;;;;;1.42;1.33;;;22.30;59.00;;;;;;5017906;28;20207;-75
2023/01/22 10:37:43;;;;;;;1.20;1.00;;;22.30;59.00;;;;;;5018701;28;20566;-74
2023/01/22 10:40:21;;;;;;;1.55;1.45;;;22.30;59.10;;;;;;5017037;28;20218;-74
2023/01/22 10:42:59;;;;;;;2.73;1.50;;;22.30;59.10;;;;;;5017456;28;20597;-74
2023/01/22 10:45:26;;;;;;;2.10;1.57;;;22.20;59.10;;;;;;5018251;28;20498;-75
2023/01/22 10:48:12;;;;;;;1.40;1.30;;;22.20;59.10;;;;;;5017281;28;20461;-75
2023/01/22 10:50:39;;;;;;;1.70;1.60;;;22.20;59.20;;;;;;5018184;28;20490;-75
2023/01/22 10:53:17;;;;;;;3.00;1.20;;;22.20;59.30;;;;;;5017670;28;20460;-74
2023/01/22 10:55:52;;;;;;;2.10;1.40;;;22.20;59.30;;;;;;5016793;28;20488;-74
2023/01/22 10:58:21;;;;;;;2.10;1.30;;;22.20;59.30;;;;;;5015638;28;20673;-75
2023/01/22 11:00:57;;;;;;;2.80;1.97;;;22.20;59.40;;;;;;5015789;28;20470;-76
2023/01/22 11:03:33;;;;;;;1.50;1.40;;;22.10;59.40;;;;;;5012310;28;20481;-76
2023/01/22 11:06:06;;;;;;;3.70;1.53;;;22.10;59.50;;;;;;5018452;28;20960;-76
2023/01/22 11:08:42;;;;;;;2.08;1.88;;;21.90;59.60;;;;;;5018249;28;20473;-76
2023/01/22 11:11:12;;;;;;;1.75;1.65;;;21.60;60.00;;;;;;5015160;28;20557;-77
2023/01/22 11:13:50;;;;;;;112.63;8.70;;;21.40;61.00;;;;;;5015555;28;20090;-82
2023/01/22 11:16:19;;;;;;;3.30;1.40;;;21.10;62.40;;;;;;5016439;28;20491;-78
2023/01/22 11:18:54;;;;;;;1.95;1.55;;;20.70;62.70;;;;;;5017341;28;20462;-78
2023/01/22 11:21:25;;;;;;;3.50;1.45;;;20.60;63.40;;;;;;5018967;28;22276;-77
2023/01/22 11:23:58;;;;;;;3.03;1.40;;;20.50;63.60;;;;;;5018168;28;20564;-78
2023/01/22 11:26:53;;;;;;;4.38;1.50;;;20.50;63.70;;;;;;5012796;28;20745;-82
2023/01/22 11:29:34;;;;;;;2.53;1.40;;;20.50;63.90;;;;;;5010951;28;20211;-82
2023/01/22 11:32:20;;;;;;;2.40;1.50;;;20.60;64.10;;;;;;5017752;28;20812;-84
2023/01/22 11:34:57;;;;;;;1.83;1.50;;;20.70;64.50;;;;;;5021321;28;20500;-81
2023/01/22 11:37:37;;;;;;;1.63;1.30;;;20.70;64.50;;;;;;5021833;28;20752;-82
2023/01/22 11:40:18;;;;;;;7.57;1.90;;;20.70;64.50;;;;;;5016513;28;20470;-82
2023/01/22 11:43:17;;;;;;;2.65;1.45;;;20.70;64.80;;;;;;5018730;28;20234;-82
2023/01/22 11:46:14;;;;;;;3.15;1.75;;;20.70;64.80;;;;;;5017996;28;20190;-82
2023/01/22 11:48:55;;;;;;;2.50;1.67;;;20.70;65.00;;;;;;5015361;28;20241;-83
2023/01/22 11:51:31;;;;;;;2.45;1.88;;;20.60;63.50;;;;;;5014515;28;20701;-82
2023/01/22 11:54:12;;;;;;;1.92;1.75;;;20.60;62.50;;;;;;5016338;28;20230;-82
2023/01/22 11:56:55;;;;;;;2.45;1.50;;;20.50;61.80;;;;;;5016484;28;20569;-82
2023/01/22 11:59:32;;;;;;;2.50;1.65;;;20.50;61.40;;;;;;5019449;28;20211;-81
2023/01/22 12:02:19;;;;;;;1.60;1.42;;;20.50;61.20;;;;;;5018658;28;20397;-83
2023/01/22 12:05:07;;;;;;;1.65;1.25;;;20.50;61.20;;;;;;5018851;28;20203;-82
2023/01/22 12:08:15;;;;;;;2.70;1.52;;;20.50;61.20;;;;;;5019770;28;20211;-81
2023/01/22 12:11:11;;;;;;;2.58;1.88;;;20.40;60.80;;;;;;5017067;28;20203;-81
2023/01/22 12:14:09;;;;;;;2.53;1.80;;;20.40;60.80;;;;;;4985244;28;20206;-81
2023/01/22 12:16:45;;;;;;;1.70;1.35;;;20.40;60.70;;;;;;5015127;28;20232;-82
2023/01/22 12:19:34;;;;;;;1.75;1.52;;;20.40;60.60;;;;;;5019355;28;20203;-82
2023/01/22 12:22:08;;;;;;;2.00;1.60;;;20.40;60.70;;;;;;5013600;28;20283;-82
2023/01/22 12:24:41;;;;;;;1.77;1.40;;;20.50;60.80;;;;;;5013785;28;20846;-81
2023/01/22 12:27:14;;;;;;;1.70;1.33;;;20.40;60.70;;;;;;5013470;28;20465;-82
2023/01/22 12:29:44;;;;;;;1.30;1.20;;;20.50;61.40;;;;;;5016937;28;20564;-81
2023/01/22 12:32:14;;;;;;;1.50;1.30;;;20.60;61.80;;;;;;5014695;28;20207;-81
2023/01/22 12:34:46;;;;;;;1.70;1.40;;;20.70;62.00;;;;;;5015929;28;20463;-82
2023/01/22 12:37:17;;;;;;;1.77;1.10;;;20.70;62.10;;;;;;5016778;28;20875;-81
2023/01/22 12:39:56;;;;;;;2.53;1.57;;;20.80;62.20;;;;;;5014428;28;20200;-82
2023/01/22 12:42:34;;;;;;;2.80;1.70;;;20.80;62.30;;;;;;5015872;28;20517;-81
2023/01/22 12:45:13;;;;;;;2.03;1.40;;;20.80;62.40;;;;;;5015920;28;20218;-81
2023/01/22 12:47:55;;;;;;;1.90;1.37;;;20.80;62.50;;;;;;5014805;28;20199;-81
2023/01/22 12:50:24;;;;;;;1.98;1.55;;;20.90;62.70;;;;;;5015400;28;20984;-83
2023/01/22 12:52:59;;;;;;;2.30;1.50;;;20.90;62.70;;;;;;5014653;28;20189;-81
2023/01/22 12:55:33;;;;;;;1.80;1.43;;;20.90;62.80;;;;;;5016152;28;20220;-82
2023/01/22 12:58:00;;;;;;;1.80;1.50;;;20.90;62.90;;;;;;5017235;28;20468;-83
2023/01/22 13:00:34;;;;;;;1.30;1.10;;;20.90;62.90;;;;;;5014999;28;20807;-82
2023/01/22 13:03:02;;;;;;;1.77;1.20;;;20.90;63.00;;;;;;5017433;28;20754;-82
2023/01/22 13:05:43;;;;;;;1.30;1.00;;;20.90;63.10;;;;;;5010582;28;20463;-84
2023/01/22 13:08:33;;;;;;;2.05;1.20;;;20.90;63.10;;;;;;5014524;28;21783;-83